Home > Products > Valid Products > TAF

000
FTUS42 KILM 021200 AAA
TAFLBT
TAF AMD
KLBT 021228Z 0212/0312 00000KT 4SM BR SCT003
      TEMPO 0212/0213 2SM BR
     FM021300 00000KT 2SM BR BKN003
     FM021400 23004KT P6SM FEW045
     FM030900 00000KT 3SM BR SCT250=



000
FTUS42 KILM 021200 AAA
TAFCRE
TAF AMD
KCRE 021227Z 0212/0312 00000KT 2SM BR SCT002
      TEMPO 0212/0213 4SM BR
     FM021300 VRB04KT P6SM FEW040
     FM021900 15006KT P6SM FEW045
     FM031000 00000KT 5SM BR SCT250=



000
FTUS42 KILM 021100 CCB
TAFCRE
TAF COR
KCRE 021156Z 0212/0312 00000KT 1/2SM FG SCT002
      TEMPO 0212/0213 2SM BR
     FM021300 VRB04KT P6SM FEW040
     FM021900 15006KT P6SM FEW045
     FM031000 00000KT 5SM BR SCT250=



000
FTUS42 KILM 021100 CCB
TAFILM
TAF COR
KILM 021156Z 0212/0312 00000KT 1/2SM FG VV002
      TEMPO 0212/0213 2SM BR
     FM021300 VRB04KT P6SM FEW040
     FM021900 15006KT P6SM FEW045
     FM031000 00000KT 5SM BR SCT250=



000
FTUS42 KILM 021100 CCA
TAFCRE
TAF COR
KCRE 021146Z 0212/0312 00000KT 1/2SM FG SCT002
      TEMPO 0212/0214 2SM BR
     FM021400 VRB04KT P6SM FEW040
     FM021900 15006KT P6SM FEW045
     FM031000 00000KT 5SM BR SCT250=



000
FTUS42 KILM 021100 CCA
TAFILM
TAF COR
KILM 021145Z 0212/0312 00000KT 1/2SM FG VV002
      TEMPO 0212/0214 2SM BR
     FM021400 VRB04KT P6SM FEW040
     FM021900 15006KT P6SM FEW045
     FM031000 00000KT 5SM BR SCT250=



000
FTUS42 KILM 021100
TAFCRE
TAF
KCRE 021120Z 0212/0312 00000KT 6SM BR FEW016
     FM021400 VRB04KT P6SM FEW040
     FM021900 15006KT P6SM FEW045
     FM031000 00000KT 5SM BR SCT250=



000
FTUS42 KILM 021100
TAFLBT
TAF
KLBT 021120Z 0212/0312 00000KT 1SM BR VV002
      TEMPO 0212/0213 2SM BR BKN003
     FM021300 00000KT 2SM BR BKN003
     FM021400 23004KT P6SM FEW045
     FM030900 00000KT 3SM BR SCT250=



000
FTUS42 KILM 021100
TAFILM
TAF
KILM 021120Z 0212/0312 00000KT 6SM BR FEW016
     FM021400 VRB04KT P6SM FEW040
     FM021900 15006KT P6SM FEW045
     FM031000 00000KT 5SM BR SCT250=



000
FTUS42 KILM 021100
TAFMYR
TAF
KMYR 021120Z 0212/0312 00000KT 6SM BR FEW016
     FM021400 VRB04KT P6SM FEW040
     FM021900 15006KT P6SM FEW045
     FM031000 00000KT 5SM BR SCT250=



000
FTUS42 KILM 021100
TAFFLO
TAF
KFLO 021120Z 0212/0312 00000KT P6SM SCT080
     FM021400 22004KT P6SM FEW045
     FM021900 15006KT P6SM FEW045
     FM030900 00000KT 5SM BR SCT250=



000
FTUS42 KILM 021000 AAA
TAFCRE
TAF AMD
KCRE 021009Z 0210/0306 00000KT 6SM BR FEW080
      TEMPO 0210/0212 1 1/2SM BR
     FM021200 00000KT 3SM BR FEW003
     FM021400 VRB05KT P6SM FEW040=



000
FTUS42 KILM 021000 AAB
TAFLBT
TAF AMD
KLBT 021008Z 0210/0306 00000KT 1/2SM FG VV002
      TEMPO 0210/0213 2SM BR BKN003
     FM021300 00000KT 2SM BR BKN003
     FM021400 23004KT P6SM FEW045=



000
FTUS42 KILM 021000 AAB
TAFFLO
TAF AMD
KFLO 021008Z 0210/0306 00000KT P6SM SCT080
      TEMPO 0210/0212 4SM BR BKN003
     FM021400 22004KT P6SM FEW045=



000
FTUS42 KILM 020900 AAA
TAFLBT
TAF AMD
KLBT 020958Z 0210/0306 00000KT 3SM BR SCT001
      TEMPO 0210/0212 2SM BR BKN003
     FM021400 23004KT P6SM FEW045=



000
FTUS42 KILM 020800 AAA
TAFFLO
TAF AMD
KFLO 020816Z 0208/0306 00000KT P6SM SCT080
      TEMPO 0210/0212 1SM BR BKN003
     FM021400 22004KT P6SM FEW045=



000
FTUS42 KILM 020500
TAFCRE
TAF
KCRE 020520Z 0206/0306 00000KT 6SM BR FEW080
      TEMPO 0206/0209 3SM BR
     FM020900 00000KT 3SM BR FEW003
     FM021400 VRB05KT P6SM FEW040=



000
FTUS42 KILM 020500
TAFLBT
TAF
KLBT 020520Z 0206/0306 00000KT P6SM FEW060
      TEMPO 0206/0208 2SM BR
     FM020800 00000KT 4SM BR SKC
      TEMPO 0209/0212 3/4SM BR BKN003
     FM021400 23004KT P6SM FEW045=



000
FTUS42 KILM 020500
TAFFLO
TAF
KFLO 020520Z 0206/0306 00000KT P6SM FEW060
     FM020800 00000KT 3SM BR SKC
      TEMPO 0210/0212 1SM BR BKN003
     FM021400 22004KT P6SM FEW045=



000
FTUS42 KILM 020500
TAFMYR
TAF
KMYR 020520Z 0206/0306 VRB02KT P6SM SKC
      TEMPO 0209/0212 4SM BR
     FM021400 VRB06KT P6SM FEW040
      AMD LTD TO CLD VIS AND WIND TIL 021100=



000
FTUS42 KILM 020500
TAFILM
TAF
KILM 020520Z 0206/0306 00000KT P6SM SKC
      TEMPO 0207/0209 4SM BR
     FM020900 00000KT 3SM BR FEW003
     FM021400 VRB04KT P6SM FEW040=



000
FTUS42 KILM 020400 AAA
TAFCRE
TAF AMD
KCRE 020404Z 0204/0224 16003KT P6SM SKC
      TEMPO 0204/0207 3SM BR
     FM020700 00000KT 4SM BR FEW003
     FM021400 VRB05KT P6SM FEW040=



000
FTUS42 KILM 012300
TAFFLO
TAF
KFLO 012321Z 0200/0224 00000KT P6SM FEW060
     FM020700 00000KT 4SM BR SKC
      TEMPO 0210/0212 1SM BR BKN003
     FM021400 23004KT P6SM FEW045=



000
FTUS42 KILM 012300
TAFLBT
TAF
KLBT 012321Z 0200/0224 00000KT P6SM SCT060
     FM020700 00000KT 4SM BR SKC
      TEMPO 0210/0212 1SM BR BKN003
     FM021400 23003KT P6SM FEW045=



000
FTUS42 KILM 012300
TAFILM
TAF
KILM 012321Z 0200/0224 VRB02KT P6SM SKC
     FM020800 00000KT 4SM BR FEW003
     FM021400 VRB04KT P6SM FEW040=



000
FTUS42 KILM 012300
TAFCRE
TAF
KCRE 012321Z 0200/0224 16003KT P6SM SKC
     FM020800 00000KT 4SM BR FEW003
     FM021400 VRB05KT P6SM FEW040=



000
FTUS42 KILM 012300
TAFMYR
TAF
KMYR 012321Z 0200/0224 16004KT P6SM SKC
     FM020900 00000KT 5SM BR FEW003
     FM021400 24004KT P6SM FEW040
      AMD LTD TO CLD VIS AND WIND 0204/0211=



000
FTUS42 KILM 011700
TAFFLO
TAF
KFLO 011726Z 0118/0218 06006KT P6SM SKC
      TEMPO 0210/0212 1SM BR
     FM021400 26004KT P6SM FEW030=



000
FTUS42 KILM 011700
TAFMYR
TAF
KMYR 011726Z 0118/0218 15009KT P6SM SKC
      TEMPO 0210/0212 6SM BR
     FM021400 24004KT P6SM FEW030=



000
FTUS42 KILM 011700
TAFILM
TAF
KILM 011726Z 0118/0218 VRB06KT P6SM SKC
      TEMPO 0210/0212 4SM BR
     FM021400 24004KT P6SM FEW030=



000
FTUS42 KILM 011700
TAFLBT
TAF
KLBT 011726Z 0118/0218 VRB03KT P6SM FEW020
      TEMPO 0210/0212 1SM BR
     FM021400 26004KT P6SM FEW030=



000
FTUS42 KILM 011700
TAFCRE
TAF
KCRE 011726Z 0118/0218 14005KT P6SM SKC
      TEMPO 0210/0212 4SM BR
     FM021400 24004KT P6SM FEW030=



000
FTUS42 KILM 011300 AAA
TAFLBT
TAF AMD
KLBT 011359Z 0114/0212 06003KT P6SM FEW020=



000
FTUS42 KILM 011300 AAB
TAFFLO
TAF AMD
KFLO 011359Z 0114/0212 04006KT P6SM SCT250=



000
FTUS42 KILM 011300 AAA
TAFFLO
TAF AMD
KFLO 011346Z 0114/0212 00000KT 5SM BR BKN002
     FM011430 04006KT P6SM SCT250=



000
FTUS42 KILM 011100 CCA
TAFILM
TAF COR
KILM 011141Z 0112/0212 00000KT 5SM BR SCT002
     FM011300 01007KT P6SM SCT250
     FM012000 12006KT P6SM SCT250=



000
FTUS42 KILM 011100
TAFMYR
TAF
KMYR 011120Z 0112/0212 00000KT 6SM BR SKC
      TEMPO 0112/0113 4SM BR
     FM011300 03007KT P6SM SCT250
     FM011900 15009KT P6SM SCT250=



000
FTUS42 KILM 011100
TAFCRE
TAF
KCRE 011120Z 0112/0212 00000KT 5SM BR SKC
      TEMPO 0112/0113 2SM BR SCT003
     FM011300 03007KT P6SM SCT250
     FM011900 14006KT P6SM SCT250=



000
FTUS42 KILM 011100
TAFLBT
TAF
KLBT 011120Z 0112/0212 00000KT 1/4SM FG VV002
     FM011300 03004KT 1SM BR BKN003
     FM011400 03005KT P6SM SCT250=



000
FTUS42 KILM 011100
TAFILM
TAF
KILM 011120Z 0112/0212 00000KT 2SM BR BKN002
     FM011300 01007KT P6SM SCT250
     FM012000 12006KT P6SM SCT250=



000
FTUS42 KILM 011100
TAFFLO
TAF
KFLO 011120Z 0112/0212 00000KT 1 1/2SM BR SCT004
      TEMPO 0112/0113 3SM BR
     FM011300 04006KT P6SM SCT250=



000
FTUS42 KILM 011000 AAB
TAFFLO
TAF AMD
KFLO 011003Z 0110/0206 00000KT P6SM SKC
     FM011100 00000KT 4SM BR SKC
      TEMPO 0111/0112 1SM BR SCT003
     FM011300 04006KT P6SM SCT250=



000
FTUS42 KILM 010900 AAA
TAFFLO
TAF AMD
KFLO 010939Z 0110/0206 00000KT P6SM SKC
     FM011000 00000KT 4SM BR SKC
      TEMPO 0110/0112 1SM BR SCT003
     FM011300 04006KT P6SM SCT250=



000
FTUS42 KILM 010800 CCA
TAFILM
TAF COR
KILM 010842Z 0109/0206 00000KT 2SM BR BKN002
      TEMPO 0109/0112 1SM BR
     FM011300 01007KT P6SM SCT250
     FM012000 12006KT P6SM SCT250=



000
FTUS42 KILM 010800 AAA
TAFILM
TAF AMD
KILM 010840Z 0109/0206 02004KT 6SM BR SCT003
     FM011000 00000KT 2SM BR BKN002
      TEMPO 0110/0112 1SM BR
     FM011300 01007KT P6SM SCT250
     FM012000 12006KT P6SM SCT250=



000
FTUS42 KILM 010800 AAA
TAFLBT
TAF AMD
KLBT 010822Z 0108/0206 00000KT P6SM SKC
      TEMPO 0108/0109 2SM BR BKN001
     FM010900 00000KT 2SM BR SCT003
      TEMPO 0109/0112 1/2SM FG VV001
     FM011300 03004KT P6SM SCT250=



000
FTUS42 KILM 010600 CCA
TAFFLO
TAF COR
KFLO 010620Z 0106/0206 00000KT P6SM SKC
      TEMPO 0106/0109 1SM BR
     FM010900 00000KT 2SM BR SKC
      TEMPO 0109/0112 3/4SM BR SCT003
     FM011300 04006KT P6SM SCT250=



000
FTUS42 KILM 010500
TAFFLO
TAF
KFLO 010520Z 0106/0206 00000KT P6SM SKC
      TEMPO 0107/0109 2SM BR
     FM010900 00000KT 2SM BR SKC
      TEMPO 0109/0112 3/4SM BR SCT003
     FM011300 04006KT P6SM SCT250=



000
FTUS42 KILM 010500
TAFMYR
TAF
KMYR 010520Z 0106/0206 VRB02KT P6SM SKC
     FM011000 00000KT 5SM BR SKC
     FM011300 03007KT P6SM SCT250
     FM011900 15009KT P6SM SCT250=



000
FTUS42 KILM 010500
TAFCRE
TAF
KCRE 010520Z 0106/0206 VRB02KT P6SM SKC
     FM011000 00000KT 5SM BR SKC
     FM011300 03007KT P6SM SCT250
     FM011900 14006KT P6SM SCT250=



000
FTUS42 KILM 010500
TAFLBT
TAF
KLBT 010520Z 0106/0206 00000KT P6SM SKC
      TEMPO 0106/0109 2SM BR
     FM010900 00000KT 2SM BR SKC
      TEMPO 0109/0112 1/2SM FG SCT002
     FM011300 03004KT P6SM SCT250=



000
FTUS42 KILM 010500
TAFILM
TAF
KILM 010520Z 0106/0206 02004KT P6SM SKC
     FM011000 00000KT 5SM BR SKC
     FM011300 01007KT P6SM SCT250
     FM012000 12006KT P6SM SCT250=



000
FTUS42 KILM 010400 AAA
TAFLBT
TAF AMD
KLBT 010438Z 0105/0124 VRB02KT 2SM BR SKC
      TEMPO 0106/0107 3/4SM BR SCT002
     FM010700 00000KT 3SM BR SKC
      TEMPO 0109/0112 1/2SM FG VV001
     FM011300 31006KT P6SM SKC=



000
FTUS42 KILM 302300
TAFFLO
TAF
KFLO 302325Z 0100/0124 VRB02KT P6SM SKC
     FM010800 00000KT 4SM BR SKC
      TEMPO 0109/0112 2SM BR
     FM011300 03006KT P6SM FEW050=



000
FTUS42 KILM 302300
TAFILM
TAF
KILM 302325Z 0100/0124 01003KT P6SM FEW045
     FM011000 00000KT 5SM BR SKC
     FM011300 03006KT P6SM FEW050=



000
FTUS42 KILM 302300
TAFLBT
TAF
KLBT 302325Z 0100/0124 VRB02KT P6SM SKC
     FM010700 00000KT 3SM BR SKC
      TEMPO 0109/0112 1/2SM FG
     FM011300 31006KT P6SM SKC=



000
FTUS42 KILM 302300
TAFMYR
TAF
KMYR 302325Z 0100/0124 01005KT P6SM FEW050
     FM011000 35003KT 4SM BR SKC
     FM011300 02008KT P6SM SKC
     FM011900 13008KT P6SM FEW050
      AMD LTD TO CLD VIS AND WIND 0104/0111=



000
FTUS42 KILM 302300
TAFCRE
TAF
KCRE 302325Z 0100/0124 36003KT P6SM FEW050
     FM011000 00000KT 4SM BR SKC
     FM011300 02007KT P6SM SKC
     FM011900 12007KT P6SM FEW050=



000
FTUS42 KILM 301700
TAFMYR
TAF
KMYR 301736Z 3018/0118 03008KT P6SM SKC
     FM302200 05003KT P6SM SKC
     FM011000 00000KT 4SM BR SKC
     FM011300 02006KT P6SM SKC=



000
FTUS42 KILM 301700
TAFILM
TAF
KILM 301736Z 3018/0118 02008KT P6SM SKC
     FM302200 01003KT P6SM SKC
     FM011000 00000KT 5SM BR SKC
     FM011300 03006KT P6SM SKC=



000
FTUS42 KILM 301700
TAFLBT
TAF
KLBT 301736Z 3018/0118 03006KT P6SM SCT030
     FM302200 01003KT P6SM SKC
     FM010700 00000KT 4SM BR SKC
      TEMPO 0109/0112 1/2SM FG
     FM011300 31006KT P6SM SKC=



000
FTUS42 KILM 301700
TAFFLO
TAF
KFLO 301736Z 3018/0118 03006KT P6SM SCT030
     FM302200 01003KT P6SM SKC
     FM010800 00000KT 4SM BR SKC
      TEMPO 0109/0112 2SM BR
     FM011300 31006KT P6SM SKC=



000
FTUS42 KILM 301700
TAFCRE
TAF
KCRE 301736Z 3018/0118 01008KT P6SM SCT040
     FM302200 05003KT P6SM SKC
     FM011000 00000KT 4SM BR SKC
     FM011300 02006KT P6SM SKC=



000
FTUS42 KILM 301100 CCA
TAFMYR
TAF COR
KMYR 301159Z 3012/0112 02004KT 6SM BR SCT005 SCT080
     FM301300 05008KT P6SM SCT040
     FM302200 01003KT P6SM SKC=



000
FTUS42 KILM 301100
TAFMYR
TAF
KMYR 301120Z 3012/0112 02004KT 6SM BR SCT005 SCT080
      TEMPO 3012/3013 4SM BR BKN004
     FM301300 05008KT P6SM SCT040
     FM302200 01003KT P6SM SKC=



000
FTUS42 KILM 301100
TAFFLO
TAF
KFLO 301120Z 3012/0112 03003KT 5SM BR SCT015 SCT090
      TEMPO 3012/3013 2SM BR BKN003
     FM301400 03006KT P6SM SCT040
     FM302200 01003KT P6SM SKC=



000
FTUS42 KILM 301100
TAFILM
TAF
KILM 301120Z 3012/0112 02004KT 6SM BR SCT005 SCT080
     FM301300 05008KT P6SM SCT040
     FM302200 01003KT P6SM SKC=



000
FTUS42 KILM 301100
TAFLBT
TAF
KLBT 301120Z 3012/0112 VRB02KT 1/2SM FG SCT002
      TEMPO 3012/3014 2SM BR BKN003
     FM301400 03006KT P6SM SCT040
     FM302200 01003KT P6SM SKC=



000
FTUS42 KILM 301100
TAFCRE
TAF
KCRE 301120Z 3012/0112 02004KT 6SM BR SCT005 SCT080
      TEMPO 3012/3013 4SM BR BKN004
     FM301300 05008KT P6SM SCT040
     FM302200 01003KT P6SM SKC=



000
FTUS42 KILM 300900 CCA
TAFILM
TAF COR
KILM 300952Z 3009/0106 02004KT 6SM BR SCT005 SCT080
      TEMPO 3010/3012 3SM BR BKN004
     FM301300 05008KT P6SM SCT040=



000
FTUS42 KILM 300900 AAD
TAFLBT
TAF AMD
KLBT 300935Z 3010/0106 VRB02KT 1/2SM FG SCT002
      TEMPO 3010/3013 2SM BR BKN002
     FM301300 03005KT P6SM SCT040=



000
FTUS42 KILM 300900 AAC
TAFLBT
TAF AMD
KLBT 300927Z 3009/0106 VRB02KT 1SM BR SCT002
     FM301300 03005KT P6SM SCT040=



000
FTUS42 KILM 300900 AAB
TAFILM
TAF AMD
KILM 300926Z 3009/0106 02004KT 6SM BR SCT005 SCT080
      TEMPO 3010/3012 3SM BR BKN005
     FM301300 05008KT P6SM SCT040=



000
FTUS42 KILM 300800 AAB
TAFLBT
TAF AMD
KLBT 300840Z 3009/0106 VRB02KT 4SM BR SCT007 SCT100
     FM301000 VRB02KT 1SM BR BKN002
     FM301300 03005KT P6SM SCT040=



000
FTUS42 KILM 300800 AAA
TAFFLO
TAF AMD
KFLO 300839Z 3009/0106 03003KT 5SM BR SCT015 SCT090
     FM301400 03006KT P6SM SCT040=



000
FTUS42 KILM 300800 AAA
TAFILM
TAF AMD
KILM 300838Z 3009/0106 02004KT 5SM BR SCT005 SCT080
      TEMPO 3010/3012 3SM BR BKN005
     FM301300 05008KT P6SM SCT040=



000
FTUS42 KILM 300800 AAA
TAFMYR
TAF AMD
KMYR 300838Z 3009/0106 03007KT P6SM BKN050
      TEMPO 3010/3012 BKN005
     FM301300 06010KT P6SM SCT035
      AMD LTD TO CLD VIS AND WIND TIL 301100=



000
FTUS42 KILM 300800 AAB
TAFMYR
TAF AMD
KMYR 300838Z 3009/0106 03007KT P6SM BKN050
      TEMPO 3010/3012 BKN005
     FM301300 06010KT P6SM SCT035
      AMD LTD TO CLD VIS AND WIND TIL 301100=



000
FTUS42 KILM 300800 AAA
TAFCRE
TAF AMD
KCRE 300836Z 3009/0106 04005KT 6SM BR SCT007 SCT100
      TEMPO 3010/3012 3SM BR BKN005
     FM301300 06009KT P6SM SCT035=



000
FTUS42 KILM 300700 AAA
TAFLBT
TAF AMD
KLBT 300716Z 3007/0106 VRB02KT 2SM BR SCT007 SCT100
      TEMPO 3007/3010 1/2SM FG BKN003
     FM301000 VRB02KT 1SM BR BKN002
     FM301300 03005KT P6SM SCT040=



000
FTUS42 KILM 300600 CCA
TAFCRE
TAF COR
KCRE 300610Z 3006/0106 02004KT P6SM SCT025 BKN035
      TEMPO 3006/3008 BKN028
     FM300800 04005KT 6SM BR SCT007 SCT100
      TEMPO 3008/3011 3SM BR BKN003
     FM301300 06009KT P6SM SCT035=



000
FTUS42 KILM 300600 CCA
TAFMYR
TAF COR
KMYR 300609Z 3006/0106 01005KT P6SM SCT025 BKN035
      TEMPO 3006/3008 BKN024
     FM300800 03007KT P6SM SCT007 SCT150
      TEMPO 3008/3011 BKN005
     FM301300 06010KT P6SM SCT035
      AMD LTD TO CLD VIS AND WIND TIL 301100=



000
FTUS42 KILM 300600 CCA
TAFLBT
TAF COR
KLBT 300608Z 3006/0106 VRB02KT 3SM BR SCT007 SCT100
      TEMPO 3006/3010 3/4SM BR BKN004
     FM301000 VRB02KT 1SM BR BKN002
     FM301300 03005KT P6SM SCT040=



000
FTUS42 KILM 300600 CCA
TAFILM
TAF COR
KILM 300606Z 3006/0106 VRB03KT P6SM SCT015 SCT100
      TEMPO 3006/3009 2SM BR BKN004
     FM300900 02004KT 5SM BR SCT005 SCT080
      TEMPO 3009/3011 3SM BR BKN003
     FM301300 05008KT P6SM SCT040=



000
FTUS42 KILM 300500
TAFCRE
TAF
KCRE 300520Z 3006/0106 03004KT P6SM SCT025 BKN050
     FM300900 04005KT 6SM BR SCT005 BKN100
     FM301300 06009KT P6SM SCT035=



000
FTUS42 KILM 300500
TAFFLO
TAF
KFLO 300520Z 3006/0106 03003KT 5SM BR SCT015 SCT090
      TEMPO 3008/3012 1SM BR BKN004
     FM301400 03006KT P6SM SCT040=



000
FTUS42 KILM 300500
TAFLBT
TAF
KLBT 300520Z 3006/0106 VRB02KT 3SM BR SCT004 SCT100
      TEMPO 3007/3011 3/4SM BR BKN004
     FM301400 03005KT P6SM SCT040=



000
FTUS42 KILM 300500
TAFILM
TAF
KILM 300520Z 3006/0106 VRB03KT P6SM SCT035 BKN060
     FM300900 02004KT 6SM BR SCT005 BKN080
     FM301300 05008KT P6SM SCT040=



000
FTUS42 KILM 300500
TAFMYR
TAF
KMYR 300520Z 3006/0106 02005KT P6SM SCT025 BKN050
     FM300900 03007KT P6SM SCT005 SCT150
     FM301300 06010KT P6SM SCT035
      AMD LTD TO CLD VIS AND WIND TIL 301100=



000
FTUS42 KILM 292300
TAFILM
TAF
KILM 292320Z 3000/3024 02003KT P6SM -RA FEW020 BKN060 OVC100
     FM300900 03004KT 6SM BR FEW005 BKN100
     FM301400 05007KT P6SM SCT040=



000
FTUS42 KILM 292300
TAFLBT
TAF
KLBT 292320Z 3000/3024 05003KT P6SM BKN060 OVC120
     FM300700 02003KT 4SM BR SCT005 SCT120
     FM301400 03006KT P6SM SCT040=



000
FTUS42 KILM 292300
TAFCRE
TAF
KCRE 292320Z 3000/3024 03004KT P6SM -RA FEW020 BKN050 OVC100
      TEMPO 3000/3001 4SM RA BKN020
     FM300900 04005KT 6SM BR FEW005 BKN100
     FM301400 06008KT P6SM SCT035=



000
FTUS42 KILM 292300
TAFFLO
TAF
KFLO 292320Z 3000/3024 06004KT P6SM BKN060 OVC120
     FM300700 03004KT 5SM BR SCT005 SCT120
     FM301400 04006KT P6SM SCT040=



000
FTUS42 KILM 292300
TAFMYR
TAF
KMYR 292320Z 3000/3024 03006KT P6SM -RA FEW020 BKN050 OVC100
      TEMPO 3000/3001 4SM RA BKN020
     FM300900 02007KT P6SM FEW005 BKN100
     FM301400 05010KT P6SM SCT035
      AMD LTD TO CLD VIS AND WIND 3004/3011=



000
FTUS42 KILM 291700
TAFILM
TAF
KILM 291725Z 2918/3018 01005KT P6SM VCSH SCT035 BKN070
     FM292300 36004KT 6SM BR VCSH BKN025
     FM300800 VRB03KT 5SM BR SCT004 BKN250
     FM301200 04006KT P6SM FEW080=



000
FTUS42 KILM 291700
TAFFLO
TAF
KFLO 291725Z 2918/3018 06005KT 6SM -RA BR SCT050 BKN080
     FM292200 05006KT 5SM -RA BR BKN025
     FM300500 VRB03KT 5SM BR FEW003 SCT250
     FM300600 03005KT P6SM FEW080=



000
FTUS42 KILM 291700
TAFLBT
TAF
KLBT 291725Z 2918/3018 06005KT 6SM -RA BR SCT050 BKN080
     FM292200 05006KT 5SM -RA BR BKN025
     FM300500 VRB03KT 5SM BR FEW003 SCT250
     FM300600 03005KT P6SM FEW080=



000
FTUS42 KILM 291700
TAFCRE
TAF
KCRE 291725Z 2918/3018 01005KT 6SM -RA SCT030 BKN060
      TEMPO 2918/2921 BKN020
     FM292100 36004KT 5SM -RA BR BKN025
     FM300800 VRB03KT 5SM BR SCT004 BKN250
     FM301200 04008KT P6SM FEW080=



000
FTUS42 KILM 291700
TAFMYR
TAF
KMYR 291725Z 2918/3018 01005KT 6SM -RA SCT030 BKN060
      TEMPO 2918/2921 BKN020
     FM292100 36004KT 5SM -RA BR BKN025
     FM300800 VRB03KT 5SM BR SCT004 BKN250
     FM301200 04008KT P6SM FEW080=



    US Dept of Commerce
    National Oceanic and Atmospheric Administration
    National Weather Service
    1325 East West Highway
    Silver Spring, MD 20910
    Page Author: NWS Internet Services Team
Disclaimer
Information Quality
Credits
Glossary
Privacy Policy
Freedom of Information Act (FOIA)
About Us
Career Opportunities